Time;durP1;ratioP1;P1;durP2;ratioP2;P2;SDS_P1;SDS_P2;PMS_P1;PMS_P2;Temp;Humidity;BMP_temperature;BMP_pressure;BME280_temperature;BME280_humidity;BME280_pressure;Samples;Min_cycle;Max_cycle;Signal;HPM_P1;HPM_P2
2023/07/10 00:01:50;;;;;;;5.60;3.40;;;;;;;16.17;69.24;100914.19;105415;1257;73694;-47
2023/07/10 00:04:19;;;;;;;4.50;3.40;;;;;;;16.15;69.23;100914.31;105259;1259;69980;-47
2023/07/10 00:06:48;;;;;;;4.40;3.70;;;;;;;16.11;69.38;100917.16;105441;1259;69869;-48
2023/07/10 00:09:16;;;;;;;4.10;3.40;;;;;;;16.08;69.62;100919.41;105443;1254;72856;-47
2023/07/10 00:11:45;;;;;;;6.00;3.10;;;;;;;16.05;69.87;100916.36;105430;1257;83378;-48
2023/07/10 00:14:22;;;;;;;5.20;3.40;;;;;;;16.03;69.91;100914.70;105632;1259;73502;-48
2023/07/10 00:16:51;;;;;;;4.90;3.50;;;;;;;15.97;70.19;100906.94;105427;1259;69973;-48
2023/07/10 00:19:20;;;;;;;6.90;3.40;;;;;;;15.93;70.37;100910.48;105655;1254;69942;-47
2023/07/10 00:21:52;;;;;;;4.70;3.60;;;;;;;15.90;70.55;100914.54;105442;1259;74774;-46
2023/07/10 00:24:20;;;;;;;4.40;3.60;;;;;;;15.88;70.76;100914.29;105504;1257;82298;-47
2023/07/10 00:26:48;;;;;;;3.80;3.30;;;;;;;15.88;70.99;100921.88;105678;1255;73686;-47
2023/07/10 00:29:24;;;;;;;4.70;3.20;;;;;;;15.87;71.08;100922.80;105243;1254;69947;-47
2023/07/10 00:31:52;;;;;;;5.60;3.50;;;;;;;15.83;71.17;100921.39;105415;1259;69966;-47
2023/07/10 00:34:25;;;;;;;6.40;3.30;;;;;;;15.83;71.34;100918.41;105645;1257;74305;-47
2023/07/10 00:36:54;;;;;;;4.20;3.20;;;;;;;15.81;71.41;100919.00;105402;1257;83752;-49
2023/07/10 00:39:27;;;;;;;3.50;2.90;;;;;;;15.79;71.57;100913.14;105401;1255;73882;-47
2023/07/10 00:41:58;;;;;;;3.90;3.40;;;;;;;15.79;71.87;100906.41;105431;1254;69962;-48
2023/07/10 00:44:33;;;;;;;6.50;4.10;;;;;;;15.82;72.40;100897.84;105581;1257;69979;-47
2023/07/10 00:47:23;;;;;;;3.70;3.20;;;;;;;15.88;72.80;100901.79;105492;1261;72960;-48
2023/07/10 00:49:58;;;;;;;11.30;3.80;;;;;;;15.90;72.90;100899.01;105467;1257;82464;-47
2023/07/10 00:52:31;;;;;;;5.70;3.60;;;;;;;15.92;73.04;100896.13;105421;1258;73931;-47
2023/07/10 00:55:06;;;;;;;6.60;4.20;;;;;;;15.90;73.17;100897.28;105469;1257;69943;-49
2023/07/10 00:57:35;;;;;;;5.30;3.50;;;;;;;15.87;73.30;100899.52;105311;1254;70259;-49
2023/07/10 01:00:17;;;;;;;7.30;3.50;;;;;;;15.84;73.52;100893.66;105470;1257;74126;-48
2023/07/10 01:02:46;;;;;;;4.40;3.30;;;;;;;15.81;73.61;100895.59;105372;1260;83634;-49
2023/07/10 01:05:17;;;;;;;5.60;3.70;;;;;;;15.79;73.99;100893.57;105377;1258;73752;-47
2023/07/10 01:07:55;;;;;;;5.40;3.80;;;;;;;15.78;74.15;100889.90;105432;1259;69992;-49
2023/07/10 01:10:24;;;;;;;7.10;3.60;;;;;;;15.78;74.13;100891.89;105263;1259;70346;-48
2023/07/10 01:12:52;;;;;;;5.90;3.70;;;;;;;15.74;74.22;100889.59;105637;1256;72992;-47
2023/07/10 01:15:21;;;;;;;4.50;3.90;;;;;;;15.71;74.35;100890.30;105313;1260;82859;-47
2023/07/10 01:17:49;;;;;;;4.60;3.80;;;;;;;15.69;74.44;100890.21;105396;1254;73618;-48
2023/07/10 01:20:36;;;;;;;4.50;3.60;;;;;;;15.66;74.50;100880.46;105424;1258;69899;-47
2023/07/10 01:23:05;;;;;;;6.00;4.10;;;;;;;15.64;74.58;100877.08;105310;1254;70316;-48
2023/07/10 01:25:38;;;;;;;5.30;3.70;;;;;;;15.60;74.56;100875.28;105562;1257;73229;-48
2023/07/10 01:28:09;;;;;;;4.40;3.60;;;;;;;15.56;74.70;100877.81;105335;1254;81446;-49
2023/07/10 01:30:39;;;;;;;4.90;3.40;;;;;;;15.55;74.89;100876.45;105570;1257;72311;-48
2023/07/10 01:33:13;;;;;;;4.90;4.10;;;;;;;15.52;74.94;100873.40;105320;1259;69976;-47
2023/07/10 01:35:42;;;;;;;6.40;4.20;;;;;;;15.51;75.14;100873.62;105440;1260;70192;-47
2023/07/10 01:38:13;;;;;;;4.60;3.70;;;;;;;15.51;75.29;100873.13;105465;1257;72537;-48
2023/07/10 01:40:45;;;;;;;5.10;4.00;;;;;;;15.49;75.43;100874.10;105435;1260;83430;-49
2023/07/10 01:43:15;;;;;;;6.60;3.60;;;;;;;15.48;75.58;100873.96;105428;1257;71962;-47
2023/07/10 01:45:46;;;;;;;5.30;3.60;;;;;;;15.46;75.63;100872.33;105415;1257;69945;-48
2023/07/10 01:48:16;;;;;;;6.20;4.20;;;;;;;15.44;75.76;100871.54;105463;1257;69879;-48
2023/07/10 01:50:45;;;;;;;4.90;4.00;;;;;;;15.42;75.92;100872.88;105403;1258;72925;-50
2023/07/10 01:53:13;;;;;;;7.40;4.40;;;;;;;15.39;75.98;100869.62;105423;1259;83728;-48
2023/07/10 01:55:43;;;;;;;7.10;4.30;;;;;;;15.38;76.14;100875.89;105393;1258;73633;-47
2023/07/10 01:58:13;;;;;;;5.60;3.80;;;;;;;15.39;76.42;100878.45;105138;1260;69946;-48
2023/07/10 02:00:41;;;;;;;6.30;3.60;;;;;;;15.45;76.75;100878.35;105303;1259;69931;-47
2023/07/10 02:03:10;;;;;;;5.20;3.70;;;;;;;15.50;76.72;100881.80;105483;1257;73011;-47
2023/07/10 02:05:38;;;;;;;4.40;3.60;;;;;;;15.48;76.54;100881.20;105503;1257;83432;-47
2023/07/10 02:08:07;;;;;;;4.80;4.20;;;;;;;15.44;76.50;100879.64;105368;1258;73671;-46
2023/07/10 02:10:35;;;;;;;4.80;3.90;;;;;;;15.39;76.50;100873.89;105387;1257;69928;-47
2023/07/10 02:13:12;;;;;;;5.50;4.00;;;;;;;15.37;76.72;100868.16;105341;1259;69949;-48
2023/07/10 02:15:41;;;;;;;6.10;4.00;;;;;;;15.35;76.79;100869.48;105429;1254;72900;-47
2023/07/10 02:18:09;;;;;;;5.70;4.20;;;;;;;15.32;76.96;100868.05;105377;1254;83228;-47
2023/07/10 02:20:39;;;;;;;5.30;4.30;;;;;;;15.29;77.05;100870.66;105374;1258;72649;-47
2023/07/10 02:23:07;;;;;;;6.30;4.60;;;;;;;15.30;77.38;100867.85;105301;1255;69997;-47
2023/07/10 02:25:36;;;;;;;5.40;4.20;;;;;;;15.30;77.48;100865.90;105390;1257;69999;-48
2023/07/10 02:28:05;;;;;;;6.90;4.50;;;;;;;15.29;77.57;100868.91;105362;1257;73996;-48
2023/07/10 02:30:37;;;;;;;4.60;4.10;;;;;;;15.28;77.61;100869.86;105142;1260;260015;-45
2023/07/10 02:33:06;;;;;;;4.90;4.20;;;;;;;15.26;77.68;100872.43;105469;1255;73380;-48
2023/07/10 02:35:34;;;;;;;4.80;4.20;;;;;;;15.25;77.80;100875.48;105478;1255;70390;-47
2023/07/10 02:38:02;;;;;;;6.10;4.20;;;;;;;15.23;77.80;100873.99;105373;1253;69984;-47
2023/07/10 02:40:31;;;;;;;6.90;4.20;;;;;;;15.22;77.87;100877.90;105401;1254;72997;-48
2023/07/10 02:42:59;;;;;;;5.60;4.60;;;;;;;15.22;78.02;100875.77;105427;1256;82027;-47
2023/07/10 02:45:28;;;;;;;8.90;4.70;;;;;;;15.23;78.16;100873.80;105341;1257;73908;-48
2023/07/10 02:47:56;;;;;;;4.90;3.90;;;;;;;15.25;78.24;100870.39;105405;1258;69932;-47
2023/07/10 02:50:25;;;;;;;6.60;4.00;;;;;;;15.22;78.13;100874.55;105351;1254;69980;-48
2023/07/10 02:52:53;;;;;;;5.80;4.00;;;;;;;15.21;78.18;100872.50;105378;1257;72386;-48
2023/07/10 02:55:21;;;;;;;5.90;4.00;;;;;;;15.20;78.27;100872.71;105355;1254;82060;-47
2023/07/10 02:57:50;;;;;;;6.80;4.20;;;;;;;15.20;78.59;100876.08;105387;1258;74017;-47
2023/07/10 03:00:18;;;;;;;6.20;4.80;;;;;;;15.19;78.70;100877.68;105657;1257;70015;-47
2023/07/10 03:02:46;;;;;;;6.90;4.30;;;;;;;15.19;78.81;100878.20;105614;1257;69941;-47
2023/07/10 03:05:15;;;;;;;6.40;4.30;;;;;;;15.21;78.86;100880.08;105509;1254;73640;-47
2023/07/10 03:07:44;;;;;;;5.20;4.40;;;;;;;15.22;79.07;100882.48;105403;1254;82637;-48
2023/07/10 03:10:12;;;;;;;4.40;3.90;;;;;;;15.25;79.25;100880.55;105383;1254;72645;-48
2023/07/10 03:12:40;;;;;;;4.40;4.00;;;;;;;15.29;79.47;100882.66;105208;1261;70050;-48
2023/07/10 03:15:09;;;;;;;6.50;4.30;;;;;;;15.33;79.58;100879.97;105386;1257;69948;-48
2023/07/10 03:17:38;;;;;;;4.50;3.90;;;;;;;15.39;79.78;100882.16;105557;1254;72982;-48
2023/07/10 03:20:08;;;;;;;4.40;4.00;;;;;;;15.44;80.07;100881.40;105458;1254;83511;-48
2023/07/10 03:22:36;;;;;;;6.50;4.20;;;;;;;15.48;80.06;100877.87;105604;1254;72631;-47
2023/07/10 03:25:05;;;;;;;4.50;3.90;;;;;;;15.50;80.10;100876.34;105475;1254;69949;-48
2023/07/10 03:27:33;;;;;;;8.10;4.40;;;;;;;15.52;80.18;100870.24;105404;1257;69975;-48
2023/07/10 03:30:02;;;;;;;6.10;4.50;;;;;;;15.53;80.21;100869.69;105444;1254;73867;-47
2023/07/10 03:32:30;;;;;;;6.30;4.20;;;;;;;15.52;80.32;100861.25;105487;1258;83150;-47
2023/07/10 03:34:59;;;;;;;7.20;4.20;;;;;;;15.51;80.19;100859.72;105389;1254;73684;-48
2023/07/10 03:37:27;;;;;;;5.30;4.00;;;;;;;15.49;79.99;100862.50;105637;1254;69876;-47
2023/07/10 03:39:55;;;;;;;7.90;4.00;;;;;;;15.43;79.62;100861.02;105437;1254;69961;-47
2023/07/10 03:42:24;;;;;;;5.00;3.70;;;;;;;15.39;79.46;100858.38;105433;1253;74031;-45
2023/07/10 03:44:52;;;;;;;7.20;3.70;;;;;;;15.37;79.51;100858.48;105697;1253;82013;-48
2023/07/10 03:47:20;;;;;;;7.30;3.90;;;;;;;15.34;79.41;100857.78;105380;1254;73682;-48
2023/07/10 03:49:49;;;;;;;7.90;4.50;;;;;;;15.29;79.46;100861.50;105379;1256;70539;-48
2023/07/10 03:52:17;;;;;;;5.40;4.10;;;;;;;15.27;79.59;100858.45;105428;1257;69928;-47
2023/07/10 03:54:45;;;;;;;10.20;4.10;;;;;;;15.26;79.57;100856.76;105407;1257;74168;-47
2023/07/10 03:57:14;;;;;;;6.20;4.40;;;;;;;15.25;79.76;100858.20;105366;1254;83687;-47
2023/07/10 03:59:42;;;;;;;5.60;3.70;;;;;;;15.26;79.95;100855.85;105431;1257;73470;-48
2023/07/10 04:02:10;;;;;;;7.40;4.10;;;;;;;15.29;80.05;100851.70;105376;1254;70107;-47
2023/07/10 04:04:39;;;;;;;6.40;4.00;;;;;;;15.34;80.49;100847.02;105673;1257;70346;-48
2023/07/10 04:07:07;;;;;;;5.40;4.30;;;;;;;15.38;80.49;100848.73;105414;1254;73433;-48
2023/07/10 04:09:35;;;;;;;4.80;4.10;;;;;;;15.44;80.73;100847.61;105367;1253;83352;-48
2023/07/10 04:12:04;;;;;;;5.60;4.50;;;;;;;15.52;81.08;100842.61;105654;1253;73698;-48
2023/07/10 04:14:36;;;;;;;5.90;4.50;;;;;;;15.63;81.23;100839.06;105587;1257;70080;-48
2023/07/10 04:17:05;;;;;;;4.80;4.10;;;;;;;15.74;81.21;100839.92;105428;1258;69987;-48
2023/07/10 04:19:33;;;;;;;5.00;4.10;;;;;;;15.88;81.02;100838.69;105395;1254;74258;-49
2023/07/10 04:22:01;;;;;;;4.50;4.10;;;;;;;16.03;80.82;100834.70;105427;1257;83597;-48
2023/07/10 04:24:30;;;;;;;5.60;4.10;;;;;;;16.20;80.69;100836.80;105410;1253;73462;-49
2023/07/10 04:27:01;;;;;;;5.10;4.30;;;;;;;16.39;80.52;100832.95;105350;1254;70011;-48
2023/07/10 04:29:29;;;;;;;7.40;4.80;;;;;;;16.59;80.26;100833.30;105465;1257;69955;-48
2023/07/10 04:31:57;;;;;;;11.70;4.90;;;;;;;16.78;80.06;100827.49;105436;1257;73833;-46
2023/07/10 04:34:26;;;;;;;7.40;5.10;;;;;;;16.97;80.86;100827.80;105457;1257;83368;-47
2023/07/10 04:36:54;;;;;;;5.10;4.40;;;;;;;17.18;81.23;100829.11;105397;1257;73768;-48
2023/07/10 04:39:23;;;;;;;7.10;4.90;;;;;;;17.31;80.57;100834.50;105450;1254;69877;-46
2023/07/10 04:41:51;;;;;;;7.80;5.10;;;;;;;17.45;80.63;100833.52;105454;1254;69892;-46
2023/07/10 04:44:19;;;;;;;6.40;4.80;;;;;;;17.63;80.68;100831.94;105453;1256;73708;-46
2023/07/10 04:46:48;;;;;;;5.50;4.10;;;;;;;17.79;80.59;100834.36;105413;1255;83297;-45
2023/07/10 04:49:19;;;;;;;5.30;4.10;;;;;;;17.93;79.97;100833.35;105368;1257;73921;-46
2023/07/10 04:51:47;;;;;;;4.70;3.90;;;;;;;18.06;79.56;100836.09;105499;1256;69988;-45
2023/07/10 04:54:16;;;;;;;8.00;4.00;;;;;;;18.19;79.43;100836.55;105832;1253;69846;-46
2023/07/10 04:56:44;;;;;;;6.20;4.30;;;;;;;18.30;79.29;100831.05;105801;1254;74747;-45
2023/07/10 04:59:12;;;;;;;5.80;3.90;;;;;;;18.42;79.07;100833.48;105421;1254;83363;-46
2023/07/10 05:01:41;;;;;;;6.40;3.90;;;;;;;18.53;78.67;100830.70;105442;1255;73955;-47
2023/07/10 05:04:09;;;;;;;5.60;4.30;;;;;;;18.61;78.36;100828.08;105598;1257;69875;-45
2023/07/10 05:06:38;;;;;;;7.20;4.10;;;;;;;18.68;77.97;100823.55;105621;1256;69983;-46
2023/07/10 05:09:06;;;;;;;4.60;3.90;;;;;;;18.76;77.93;100823.59;105476;1254;73786;-45
2023/07/10 05:11:35;;;;;;;6.00;4.10;;;;;;;18.84;77.84;100820.95;105447;1257;83392;-45
2023/07/10 05:14:03;;;;;;;4.30;3.90;;;;;;;18.91;77.74;100819.59;105491;1257;73066;-45
2023/07/10 05:16:32;;;;;;;6.90;4.20;;;;;;;18.97;77.83;100817.95;105406;1258;69884;-47
2023/07/10 05:19:00;;;;;;;5.20;4.20;;;;;;;19.07;77.86;100818.02;105404;1257;69919;-48
2023/07/10 05:21:28;;;;;;;14.00;5.30;;;;;;;19.14;77.60;100816.50;105410;1257;74078;-47
2023/07/10 05:23:57;;;;;;;5.00;4.10;;;;;;;19.17;77.19;100816.80;105464;1257;83338;-49
2023/07/10 05:26:25;;;;;;;4.50;3.80;;;;;;;19.21;76.72;100825.77;105403;1257;72765;-48
2023/07/10 05:28:53;;;;;;;7.20;4.10;;;;;;;19.30;76.52;100825.01;105539;1257;69907;-48
2023/07/10 05:31:21;;;;;;;6.80;4.30;;;;;;;19.41;76.10;100828.35;105411;1253;70011;-48
2023/07/10 05:33:50;;;;;;;6.10;4.20;;;;;;;19.50;75.81;100829.30;105604;1254;74143;-48
2023/07/10 05:36:19;;;;;;;5.70;3.70;;;;;;;19.60;75.46;100833.96;105577;1257;82210;-50
2023/07/10 05:38:48;;;;;;;11.60;4.10;;;;;;;19.70;75.06;100837.90;105440;1253;73794;-49
2023/07/10 05:41:18;;;;;;;6.90;3.70;;;;;;;19.77;74.48;100839.23;105436;1257;69906;-50
2023/07/10 05:43:46;;;;;;;5.70;4.00;;;;;;;19.83;72.82;100840.73;105505;1257;70004;-48
2023/07/10 05:46:15;;;;;;;7.80;3.90;;;;;;;19.87;71.46;100839.45;105699;1253;74009;-46
2023/07/10 05:48:43;;;;;;;7.60;4.40;;;;;;;19.86;70.08;100828.13;105768;1254;83323;-47
2023/07/10 05:51:12;;;;;;;7.00;4.50;;;;;;;19.86;69.37;100825.17;105738;1257;73615;-46
2023/07/10 05:53:40;;;;;;;6.60;4.30;;;;;;;19.87;68.82;100819.55;105589;1254;70005;-46
2023/07/10 05:56:09;;;;;;;8.40;4.30;;;;;;;19.88;68.27;100816.48;105633;1253;69927;-49
2023/07/10 05:58:38;;;;;;;5.70;4.10;;;;;;;19.90;67.64;100820.06;105714;1254;74197;-48
2023/07/10 06:01:09;;;;;;;7.00;4.40;;;;;;;19.91;67.17;100829.55;105555;1253;84603;-47
2023/07/10 06:03:37;;;;;;;6.40;3.90;;;;;;;19.92;66.62;100823.29;105439;1257;72675;-47
2023/07/10 06:06:06;;;;;;;11.60;4.60;;;;;;;19.94;66.18;100826.55;105497;1257;69882;-47
2023/07/10 06:08:36;;;;;;;7.90;4.60;;;;;;;19.96;65.89;100832.39;105582;1254;70034;-47
2023/07/10 06:11:06;;;;;;;6.00;4.50;;;;;;;19.95;65.34;100821.69;105594;1253;74224;-48
2023/07/10 06:13:35;;;;;;;6.30;4.50;;;;;;;19.97;65.15;100814.80;105564;1257;83288;-46
2023/07/10 06:16:06;;;;;;;7.10;4.50;;;;;;;20.02;64.95;100821.53;105474;1253;73441;-46
2023/07/10 06:18:36;;;;;;;9.50;4.60;;;;;;;20.11;64.85;100842.76;105566;1257;70158;-46
2023/07/10 06:21:05;;;;;;;5.20;4.50;;;;;;;20.15;64.66;100834.84;105383;1253;69923;-47
2023/07/10 06:23:34;;;;;;;7.80;4.90;;;;;;;20.18;64.37;100825.54;105682;1257;73907;-53
2023/07/10 06:26:03;;;;;;;10.70;4.70;;;;;;;20.25;64.11;100825.95;105570;1254;82345;-46
2023/07/10 06:28:34;;;;;;;13.60;5.00;;;;;;;20.35;64.17;100830.73;105499;1257;73883;-47
2023/07/10 06:31:06;;;;;;;8.10;4.50;;;;;;;20.46;64.01;100837.04;105553;1253;69829;-48
2023/07/10 06:33:35;;;;;;;13.00;5.20;;;;;;;20.57;63.63;100835.42;105443;1257;69844;-47
2023/07/10 06:36:04;;;;;;;10.60;5.20;;;;;;;20.66;63.51;100838.48;105702;1257;74198;-47
2023/07/10 06:38:33;;;;;;;12.00;5.30;;;;;;;20.71;63.08;100834.77;105581;1253;84252;-47
2023/07/10 06:41:05;;;;;;;11.30;4.60;;;;;;;20.71;62.75;100823.18;105618;1253;72888;-46
2023/07/10 06:43:35;;;;;;;6.70;4.50;;;;;;;20.73;62.89;100824.12;105638;1253;69854;-46
2023/07/10 06:46:03;;;;;;;6.60;5.30;;;;;;;20.78;62.85;100831.05;105501;1256;70053;-47
2023/07/10 06:48:33;;;;;;;6.30;5.30;;;;;;;20.81;62.56;100835.96;105550;1257;73191;-46
2023/07/10 06:51:02;;;;;;;7.10;4.50;;;;;;;20.83;62.16;100832.11;105632;1255;83122;-49
2023/07/10 06:53:30;;;;;;;7.70;5.00;;;;;;;20.84;62.20;100830.77;105663;1253;72554;-47
2023/07/10 06:56:00;;;;;;;7.20;5.10;;;;;;;20.88;62.04;100833.16;105512;1254;69882;-46
2023/07/10 06:58:31;;;;;;;9.10;5.10;;;;;;;20.94;61.77;100832.15;106012;1257;69919;-46
2023/07/10 07:01:00;;;;;;;;;;;;;;;21.02;62.10;100824.90;105572;1253;73786;-46
2023/07/10 07:03:30;;;;;;;9.10;5.30;;;;;;;21.13;62.80;100817.08;105507;1257;83708;-46
2023/07/10 07:05:59;;;;;;;7.90;5.30;;;;;;;21.27;62.63;100816.40;105773;1257;73624;-46
2023/07/10 07:08:27;;;;;;;7.00;4.70;;;;;;;21.40;62.82;100815.30;105560;1253;70024;-47
2023/07/10 07:10:56;;;;;;;7.60;5.10;;;;;;;21.54;62.70;100807.44;105427;1254;69881;-48
2023/07/10 07:13:24;;;;;;;5.60;4.90;;;;;;;21.72;62.72;100808.20;105879;1254;73030;-48
2023/07/10 07:15:54;;;;;;;7.10;4.80;;;;;;;21.89;62.24;100808.86;105833;1253;84261;-46
2023/07/10 07:18:23;;;;;;;;;;;;;;;22.06;61.83;100806.58;105769;1253;73435;-47
2023/07/10 07:20:56;;;;;;;5.50;4.90;;;;;;;22.25;61.57;100799.79;105725;1257;69926;-50
2023/07/10 07:23:25;;;;;;;5.60;4.50;;;;;;;22.42;61.58;100790.77;105724;1253;70092;-47
2023/07/10 07:25:55;;;;;;;7.60;5.10;;;;;;;22.62;61.38;100788.80;105461;1257;73046;-49
2023/07/10 07:28:24;;;;;;;5.90;5.20;;;;;;;22.80;61.14;100786.61;105483;1253;83808;-48
2023/07/10 07:30:52;;;;;;;8.90;5.00;;;;;;;22.99;60.86;100785.43;105640;1253;74090;-47
2023/07/10 07:33:20;;;;;;;6.20;4.60;;;;;;;23.20;60.34;100784.23;105400;1253;69992;-47
2023/07/10 07:35:49;;;;;;;4.60;4.20;;;;;;;23.46;59.92;100780.08;105447;1254;69834;-47
2023/07/10 07:38:17;;;;;;;7.40;4.90;;;;;;;23.74;59.11;100783.02;105446;1257;74237;-47
2023/07/10 07:40:45;;;;;;;7.60;5.10;;;;;;;23.99;58.29;100776.59;105467;1255;83980;-47
2023/07/10 07:43:15;;;;;;;5.70;4.40;;;;;;;24.21;57.87;100770.76;105454;1253;74279;-48
2023/07/10 07:45:50;;;;;;;;;;;;;;;24.41;57.23;100773.74;105524;1257;70029;-47
2023/07/10 07:48:18;;;;;;;7.40;4.90;;;;;;;24.64;56.76;100775.27;105571;1253;69947;-47
2023/07/10 07:50:58;;;;;;;8.70;5.10;;;;;;;24.81;56.45;100781.42;105571;1253;73930;-47
2023/07/10 07:53:27;;;;;;;;;;;;;;;25.02;55.93;100783.46;105746;1253;83038;-48
2023/07/10 07:55:56;;;;;;;9.70;4.90;;;;;;;25.18;55.25;100781.11;105887;1255;73045;-47
2023/07/10 07:58:25;;;;;;;8.60;4.80;;;;;;;25.32;54.77;100784.63;105557;1253;70032;-48
2023/07/10 08:00:53;;;;;;;4.90;3.70;;;;;;;25.44;54.27;100786.36;105702;1257;69866;-47
2023/07/10 08:03:22;;;;;;;6.20;4.50;;;;;;;25.57;53.92;100790.95;105792;1253;73758;-48
2023/07/10 08:05:50;;;;;;;4.50;4.00;;;;;;;25.68;53.47;100794.52;105624;1253;83945;-48
2023/07/10 08:08:19;;;;;;;6.10;4.40;;;;;;;25.74;53.06;100793.96;105459;1257;73984;-47
2023/07/10 08:10:49;;;;;;;5.10;4.10;;;;;;;25.81;52.52;100792.90;105649;1253;70008;-47
2023/07/10 08:13:19;;;;;;;5.00;3.80;;;;;;;25.91;52.30;100798.13;105547;1255;69978;-48
2023/07/10 08:15:48;;;;;;;5.00;4.00;;;;;;;25.97;52.19;100804.69;105439;1253;76053;-48
2023/07/10 08:18:16;;;;;;;6.60;4.00;;;;;;;26.02;51.43;100814.55;105405;1253;83745;-48
2023/07/10 08:20:44;;;;;;;35.90;5.70;;;;;;;26.07;50.71;100820.06;105372;1253;73183;-50
2023/07/10 08:23:13;;;;;;;29.70;5.40;;;;;;;26.08;50.20;100826.23;105391;1253;70051;-48
2023/07/10 08:25:41;;;;;;;16.70;4.80;;;;;;;26.10;50.26;100832.27;105405;1256;69867;-48
2023/07/10 08:28:09;;;;;;;7.10;4.20;;;;;;;26.06;50.07;100840.14;105394;1257;73774;-48
2023/07/10 08:30:37;;;;;;;7.70;4.20;;;;;;;25.92;49.66;100852.03;105381;1257;83517;-49
2023/07/10 08:33:06;;;;;;;10.00;4.50;;;;;;;25.77;49.72;100867.77;105414;1253;73378;-48
2023/07/10 08:35:35;;;;;;;6.70;4.10;;;;;;;25.60;49.53;100879.86;105479;1253;69859;-46
2023/07/10 08:38:03;;;;;;;11.70;4.90;;;;;;;25.45;49.75;100892.59;105401;1257;70006;-47
2023/07/10 08:40:35;;;;;;;7.90;4.00;;;;;;;25.31;49.89;100897.11;105433;1257;75030;-48
2023/07/10 08:43:24;;;;;;;10.90;4.50;;;;;;;25.15;50.13;100897.41;105438;1258;83597;-49
2023/07/10 08:46:01;;;;;;;4.80;4.10;;;;;;;24.99;51.06;100909.39;105628;1257;73677;-48
2023/07/10 08:48:35;;;;;;;8.00;4.80;;;;;;;24.71;52.01;100914.08;105406;1253;70062;-48
2023/07/10 08:51:21;;;;;;;5.40;4.80;;;;;;;24.40;52.86;100916.59;105600;1253;70073;-48
2023/07/10 08:54:05;;;;;;;8.00;5.00;;;;;;;24.19;53.49;100913.73;105462;1253;73820;-48
2023/07/10 08:56:39;;;;;;;13.00;5.10;;;;;;;24.02;54.22;100909.88;105466;1253;82625;-48
2023/07/10 08:59:32;;;;;;;11.40;5.20;;;;;;;23.86;55.21;100913.02;105304;1253;72640;-48
2023/07/10 09:02:00;;;;;;;6.60;5.80;;;;;;;23.73;55.44;100917.33;105333;1253;69979;-48
2023/07/10 09:04:30;;;;;;;8.50;5.80;;;;;;;23.58;55.52;100910.13;105412;1257;70019;-47
2023/07/10 09:07:00;;;;;;;7.30;5.90;;;;;;;23.48;55.94;100901.52;105428;1253;74101;-48
2023/07/10 09:09:45;;;;;;;7.10;5.40;;;;;;;23.39;56.23;100900.64;105402;1257;83276;-49
2023/07/10 09:12:22;;;;;;;7.90;5.90;;;;;;;23.31;57.56;100898.13;105409;1253;72589;-47
2023/07/10 09:14:58;;;;;;;7.70;6.00;;;;;;;23.23;58.98;100892.61;105425;1256;70035;-48
2023/07/10 09:17:46;;;;;;;9.20;7.50;;;;;;;23.11;59.67;100891.20;105381;1257;69959;-47
2023/07/10 09:20:15;;;;;;;8.10;5.80;;;;;;;23.03;60.46;100885.32;105405;1253;74995;-48
2023/07/10 09:22:58;;;;;;;10.50;6.40;;;;;;;22.90;59.56;100872.95;105439;1253;81915;-47
2023/07/10 09:25:27;;;;;;;8.50;6.70;;;;;;;22.84;60.10;100839.27;105412;1253;73645;-47
2023/07/10 09:27:56;;;;;;;8.10;6.00;;;;;;;22.80;60.58;100804.27;105363;1257;70010;-47
2023/07/10 09:30:50;;;;;;;10.90;6.20;;;;;;;22.74;60.97;100782.50;105393;1253;69885;-49
2023/07/10 09:33:20;;;;;;;6.40;5.80;;;;;;;22.65;61.36;100762.15;105413;1253;73800;-48
2023/07/10 09:35:50;;;;;;;7.10;6.00;;;;;;;22.59;61.81;100751.44;105400;1256;83278;-49
2023/07/10 09:38:18;;;;;;;;;;;;;;;22.52;62.11;100737.47;105421;1257;73862;-48
2023/07/10 09:40:49;;;;;;;7.20;6.30;;;;;;;22.48;63.23;100739.02;105412;1257;70012;-47
2023/07/10 09:43:23;;;;;;;11.50;6.70;;;;;;;22.48;64.30;100749.53;105409;1253;69983;-48
2023/07/10 09:45:57;;;;;;;8.00;6.60;;;;;;;22.46;64.83;100756.23;105668;1253;73529;-47
2023/07/10 09:48:52;;;;;;;9.00;6.70;;;;;;;22.49;64.93;100759.97;105416;1253;83313;-47
2023/07/10 09:51:22;;;;;;;11.60;7.50;;;;;;;22.62;65.17;100750.84;105366;1253;73907;-48
2023/07/10 09:53:53;;;;;;;8.90;6.90;;;;;;;22.89;65.56;100744.19;105454;1253;69999;-48
2023/07/10 09:56:35;;;;;;;8.50;6.70;;;;;;;23.19;65.39;100747.80;105406;1253;69900;-48
2023/07/10 09:59:22;;;;;;;10.00;6.00;;;;;;;23.45;64.44;100742.71;105602;1256;75055;-48
2023/07/10 10:01:53;;;;;;;10.50;7.20;;;;;;;23.73;63.98;100741.95;105452;1257;83591;-48
2023/07/10 10:04:24;;;;;;;7.60;6.00;;;;;;;23.97;62.76;100740.17;105419;1253;74335;-48
2023/07/10 10:07:05;;;;;;;6.50;5.80;;;;;;;24.25;62.56;100745.60;105388;1253;69965;-48
2023/07/10 10:09:35;;;;;;;8.90;6.40;;;;;;;24.55;62.15;100742.84;105423;1256;69949;-49
2023/07/10 10:12:18;;;;;;;8.80;6.00;;;;;;;24.78;61.78;100747.71;105450;1257;74233;-48
2023/07/10 10:14:53;;;;;;;6.80;6.20;;;;;;;25.11;61.26;100745.46;105433;1253;83634;-49
2023/07/10 10:17:24;;;;;;;7.80;5.80;;;;;;;25.50;61.14;100744.66;105407;1255;73882;-49
2023/07/10 10:20:12;;;;;;;7.30;6.10;;;;;;;25.87;59.86;100742.23;105597;1253;70032;-48
2023/07/10 10:22:40;;;;;;;7.70;6.60;;;;;;;26.12;58.80;100736.46;105422;1257;69891;-49
2023/07/10 10:25:15;;;;;;;6.90;6.20;;;;;;;26.22;58.28;100731.64;105375;1253;74659;-50
2023/07/10 10:27:57;;;;;;;7.80;6.30;;;;;;;26.43;58.29;100721.80;105412;1253;82598;-48
2023/07/10 10:30:31;;;;;;;8.20;5.80;;;;;;;26.75;57.77;100722.65;105278;1258;71994;-48
2023/07/10 10:33:27;;;;;;;6.40;5.70;;;;;;;27.13;57.03;100721.52;105251;1258;69882;-48
2023/07/10 10:36:01;;;;;;;8.80;6.00;;;;;;;27.65;56.54;100718.52;105306;1253;70259;-48
2023/07/10 10:38:52;;;;;;;6.00;5.40;;;;;;;28.12;55.84;100712.21;105473;1253;73590;-49
2023/07/10 10:41:20;;;;;;;6.20;4.90;;;;;;;28.63;54.38;100713.92;105418;1258;83588;-49
2023/07/10 10:44:36;;;;;;;7.50;5.40;;;;;;;28.94;52.95;100716.84;105416;1257;73521;-49
2023/07/10 10:47:14;;;;;;;6.70;4.90;;;;;;;28.95;51.51;100711.37;105413;1257;70019;-49
2023/07/10 10:50:03;;;;;;;5.90;4.40;;;;;;;28.79;50.71;100705.20;105446;1257;69949;-50
2023/07/10 10:52:44;;;;;;;;;;;;;;;28.99;50.74;100699.38;105485;1253;74853;-50
2023/07/10 10:55:15;;;;;;;6.80;4.30;;;;;;;29.41;50.37;100698.50;105430;1253;83632;-51
2023/07/10 10:57:52;;;;;;;4.90;4.30;;;;;;;29.84;49.01;100696.73;105614;1257;73257;-52
2023/07/10 11:00:39;;;;;;;5.10;4.60;;;;;;;30.29;48.30;100683.06;105443;1253;69911;-50
2023/07/10 11:03:32;;;;;;;5.80;4.60;;;;;;;30.73;47.15;100678.67;105451;1257;70028;-53
2023/07/10 11:06:32;;;;;;;5.50;4.50;;;;;;;31.10;46.54;100675.44;105469;1256;74766;-50
2023/07/10 11:09:05;;;;;;;5.20;4.10;;;;;;;31.52;45.33;100672.38;105377;1257;83279;-50
2023/07/10 11:11:36;;;;;;;4.90;4.30;;;;;;;31.89;45.14;100661.23;105384;1257;72795;-49
2023/07/10 11:14:05;;;;;;;5.10;4.30;;;;;;;32.25;44.24;100659.80;105458;1254;70019;-51
2023/07/10 11:16:34;;;;;;;4.70;4.00;;;;;;;32.48;43.82;100656.70;105490;1253;69968;-52
2023/07/10 11:19:04;;;;;;;7.80;4.30;;;;;;;32.68;43.39;100654.10;105289;1254;74015;-50
2023/07/10 11:21:33;;;;;;;5.00;4.20;;;;;;;32.85;42.96;100653.84;105613;1256;82877;-51
2023/07/10 11:24:28;;;;;;;5.00;4.30;;;;;;;33.01;42.66;100651.38;105420;1253;72797;-51
2023/07/10 11:27:00;;;;;;;5.50;4.20;;;;;;;33.42;41.62;100646.30;105493;1253;69789;-50
2023/07/10 11:29:36;;;;;;;5.90;3.50;;;;;;;33.65;40.58;100640.22;105566;1253;69961;-50
2023/07/10 11:32:16;;;;;;;4.90;4.00;;;;;;;33.77;40.19;100640.06;105327;1258;75015;-51
2023/07/10 11:34:54;;;;;;;5.40;4.20;;;;;;;33.98;39.56;100638.02;105657;1256;82924;-51
2023/07/10 11:38:02;;;;;;;5.70;3.60;;;;;;;34.40;38.69;100627.86;105231;1258;73109;-50